Nearby METAR Reports

 

KSJC - San Jose, California, USA
Distance from station: NE 14km
Updated: 2018-02-17 10:53
Clear
Clear
 Wind from calm
Wind: Calm
Temperature: 16°C
Dew Point: 1°C
Humidity: 36%
Barometer: 1021.7 hPa
Clouds: Clear
Visibility: 16 km
2018/02/17 18:53 KSJC 171853Z 00000KT 10SM CLR 16/01 A3017 RMK AO2 SLP217 T01610011
KNUQ - Moffett Nas/Mtn, California, USA
Distance from station: N 14km
Updated: 2018-02-17 10:56
Clear
Clear
 Wind from varies
Wind: varies 7 km/h
Temperature: 16°C
Dew Point: 1°C
Humidity: 36%
Barometer: 1022 hPa
Clouds: Clear
Visibility: 16 km
2018/02/17 18:56 KNUQ 171856Z VRB04KT 10SM CLR 16/01 A3018 RMK AO2 SLP223 T01560011
 
KPAO - Palo Alto, California, USA
Distance from station: NNW 23km
Updated: 2018-02-17 09:47
NOT Current
Clear
Clear
 Wind from varies
Wind: varies 11 km/h
Clouds: Clear
Visibility: 16 km
2018/02/17 17:47 KPAO 171747Z VRB06KT 10SM SKC --/-- A3019
KRHV - San Jose/Reid, California, USA
Distance from station: ENE 19km
Updated: 2018-02-17 10:50
Clear
Clear
 Wind from NW
Wind: NW 7 km/h
Temperature: 17°C
Dew Point: 1°C
Humidity: 34%
Barometer: 1021 hPa
Clouds: Clear
Visibility: 16 km
2018/02/17 18:50 KRHV 171850Z 32004KT 10SM SKC 17/01 A3015
 
KOAK - Oakland, California, USA
Distance from station: NNW 50km
Updated: 2018-02-17 10:53
Clear
Clear
 Wind from SW
Wind: SW 9 km/h
Temperature: 13°C
Dew Point: 6°C
Humidity: 63%
Barometer: 1021.7 hPa
Clouds: Clear
Visibility: 16 km
2018/02/17 18:53 KOAK 171853Z 22005KT 10SM CLR 13/06 A3017 RMK AO2 SLP217 T01330061
KSQL - San Carlos Airpo, California, USA
Distance from station: NW 34km
Updated: 2018-02-17 09:47
NOT Current
Clear
Clear
 Wind from NNW
Wind: NNW 6 km/h
Temperature: 13°C
Dew Point: 3°C
Humidity: 51%
Barometer: 1022 hPa
Clouds: Clear
Visibility: 16 km
2018/02/17 17:47 KSQL 171747Z 33003KT 10SM SKC 13/03 A3018
 
KSFO - San Francisco, California, USA
Distance from station: NW 49km
Updated: 2018-02-17 10:56
Clear
Clear
 Wind from NE
Wind: NE 6 km/h
Temperature: 13°C
Dew Point: 7°C
Humidity: 67%
Barometer: 1021.3 hPa
Clouds: Clear
Visibility: 16 km
2018/02/17 18:56 KSFO 171856Z 05003KT 10SM CLR 13/07 A3016 RMK AO2 SLP214 T01330072
KE16 - San Martin, California, USA
Distance from station: ESE 43km
Updated: 2018-02-17 11:15
Clear
Clear
 Wind from NW
Wind: NW 6 km/h
Temperature: 15°C
Dew Point: 0°C
Humidity: 36%
Barometer: 1022 hPa
Clouds: Clear
Visibility: 16 km
2018/02/17 19:15 KE16 171915Z AUTO 32003KT 10SM CLR 15/00 A3018 RMK AO2
 
KWVI - Watsonville, California, USA
Distance from station: SSE 44km
Updated: 2018-02-17 10:53
Clear
Clear
 Wind from calm
Wind: Calm
Temperature: 16°C
Dew Point: 2°C
Humidity: 39%
Barometer: 1021.7 hPa
Clouds: Clear
Visibility: 16 km
2018/02/17 18:53 KWVI 171853Z AUTO 00000KT 10SM CLR 16/02 A3017 RMK AO2 SLP215 T01610022
KHAF - Half Moon Bay, California, USA
Distance from station: WNW 50km
Updated: 2018-02-17 11:15
Haze, Clear
Haze, Clear
 Wind from NW
Wind: NW 9 km/h
Temperature: 14°C
Dew Point: 10°C
Humidity: 77%
Barometer: 1020.3 hPa
Summary: Haze
Clouds: Clear
Visibility: 6 km
2018/02/17 19:15 KHAF 171915Z AUTO 31005KT 4SM HZ CLR 14/10 A3013 RMK AO2
 
KHWD - Hayward, California, USA
Distance from station: N 44km
Updated: 2018-02-17 10:54
Clear
Clear
 Wind from calm
Wind: Calm
Temperature: 16°C
Dew Point: 1°C
Humidity: 36%
Barometer: 1021.3 hPa
Clouds: Clear
Visibility: 16 km
2018/02/17 18:54 KHWD 171854Z 00000KT 10SM CLR 16/01 A3016 RMK AO2 SLP223 T01610011
KLVK - Livermore, California, USA
Distance from station: NNE 51km
Updated: 2018-02-17 10:53
Clear
Clear
 Wind from SSW
Wind: SSW 6 km/h
Temperature: 15°C
Dew Point: 2°C
Humidity: 42%
Barometer: 1021.3 hPa
Clouds: Clear
Visibility: 16 km
2018/02/17 18:53 KLVK 171853Z 21003KT 10SM CLR 15/02 A3016 RMK AO2 SLP215 T01500017